sensor_id;sensor_type;location;lat;lon;timestamp;temperature;humidity
43858;DHT22;29507;51.284;5.758;2023-06-26T00:02:12;21.90;99.90
43858;DHT22;29507;51.284;5.758;2023-06-26T00:04:38;21.90;99.90
43858;DHT22;29507;51.284;5.758;2023-06-26T00:07:04;21.90;99.90
43858;DHT22;29507;51.284;5.758;2023-06-26T00:09:30;21.90;99.90
43858;DHT22;29507;51.284;5.758;2023-06-26T00:11:55;21.90;99.90
43858;DHT22;29507;51.284;5.758;2023-06-26T00:14:21;21.90;99.90
43858;DHT22;29507;51.284;5.758;2023-06-26T00:16:47;21.90;99.90
43858;DHT22;29507;51.284;5.758;2023-06-26T00:19:15;21.90;99.90
43858;DHT22;29507;51.284;5.758;2023-06-26T00:21:41;21.90;99.90
43858;DHT22;29507;51.284;5.758;2023-06-26T00:24:12;21.80;99.90
43858;DHT22;29507;51.284;5.758;2023-06-26T00:26:38;21.80;99.90
43858;DHT22;29507;51.284;5.758;2023-06-26T00:29:03;21.80;99.90
43858;DHT22;29507;51.284;5.758;2023-06-26T00:31:29;21.70;99.90
43858;DHT22;29507;51.284;5.758;2023-06-26T00:33:54;21.80;99.90
43858;DHT22;29507;51.284;5.758;2023-06-26T00:36:20;21.70;99.90
43858;DHT22;29507;51.284;5.758;2023-06-26T00:38:48;21.70;99.90
43858;DHT22;29507;51.284;5.758;2023-06-26T00:41:14;21.70;99.90
43858;DHT22;29507;51.284;5.758;2023-06-26T00:43:40;21.70;99.90
43858;DHT22;29507;51.284;5.758;2023-06-26T00:46:09;21.80;99.90
43858;DHT22;29507;51.284;5.758;2023-06-26T00:48:35;21.80;99.90
43858;DHT22;29507;51.284;5.758;2023-06-26T00:51:01;21.90;99.90
43858;DHT22;29507;51.284;5.758;2023-06-26T00:53:27;21.90;99.90
43858;DHT22;29507;51.284;5.758;2023-06-26T00:55:53;21.90;99.90
43858;DHT22;29507;51.284;5.758;2023-06-26T00:58:21;21.90;99.90
43858;DHT22;29507;51.284;5.758;2023-06-26T01:00:47;21.90;99.90
43858;DHT22;29507;51.284;5.758;2023-06-26T01:03:13;22.00;99.90
43858;DHT22;29507;51.284;5.758;2023-06-26T01:05:38;22.00;99.90
43858;DHT22;29507;51.284;5.758;2023-06-26T01:08:04;22.00;99.90
43858;DHT22;29507;51.284;5.758;2023-06-26T01:10:31;22.00;99.90
43858;DHT22;29507;51.284;5.758;2023-06-26T01:12:57;22.10;99.90
43858;DHT22;29507;51.284;5.758;2023-06-26T01:15:23;22.10;99.90
43858;DHT22;29507;51.284;5.758;2023-06-26T01:17:49;22.10;99.90
43858;DHT22;29507;51.284;5.758;2023-06-26T01:20:16;22.10;99.90
43858;DHT22;29507;51.284;5.758;2023-06-26T01:28:07;22.10;99.90
43858;DHT22;29507;51.284;5.758;2023-06-26T01:30:37;22.10;99.90
43858;DHT22;29507;51.284;5.758;2023-06-26T01:33:04;22.10;99.90
43858;DHT22;29507;51.284;5.758;2023-06-26T01:35:30;22.10;99.90
43858;DHT22;29507;51.284;5.758;2023-06-26T01:38:18;22.10;99.90
43858;DHT22;29507;51.284;5.758;2023-06-26T01:40:44;22.00;99.90
43858;DHT22;29507;51.284;5.758;2023-06-26T01:45:49;21.90;99.90
43858;DHT22;29507;51.284;5.758;2023-06-26T01:48:17;21.80;99.90
43858;DHT22;29507;51.284;5.758;2023-06-26T01:50:45;21.70;99.90
43858;DHT22;29507;51.284;5.758;2023-06-26T01:53:15;21.60;99.90
43858;DHT22;29507;51.284;5.758;2023-06-26T01:55:55;21.50;99.90
43858;DHT22;29507;51.284;5.758;2023-06-26T01:58:25;21.50;99.90
43858;DHT22;29507;51.284;5.758;2023-06-26T02:00:51;21.40;99.90
43858;DHT22;29507;51.284;5.758;2023-06-26T02:03:17;21.40;99.90
43858;DHT22;29507;51.284;5.758;2023-06-26T02:05:43;21.40;99.90
43858;DHT22;29507;51.284;5.758;2023-06-26T02:08:10;21.40;99.90
43858;DHT22;29507;51.284;5.758;2023-06-26T02:10:36;21.40;99.90
43858;DHT22;29507;51.284;5.758;2023-06-26T02:13:02;21.40;99.90
43858;DHT22;29507;51.284;5.758;2023-06-26T02:15:27;21.30;99.90
43858;DHT22;29507;51.284;5.758;2023-06-26T02:17:53;21.20;99.90
43858;DHT22;29507;51.284;5.758;2023-06-26T02:20:19;21.20;99.90
43858;DHT22;29507;51.284;5.758;2023-06-26T02:22:44;21.20;99.90
43858;DHT22;29507;51.284;5.758;2023-06-26T02:25:10;21.10;99.90
43858;DHT22;29507;51.284;5.758;2023-06-26T02:27:37;21.10;99.90
43858;DHT22;29507;51.284;5.758;2023-06-26T02:30:04;21.00;99.90
43858;DHT22;29507;51.284;5.758;2023-06-26T02:32:29;20.90;99.90
43858;DHT22;29507;51.284;5.758;2023-06-26T02:34:55;20.90;99.90
43858;DHT22;29507;51.284;5.758;2023-06-26T02:37:21;21.00;99.90
43858;DHT22;29507;51.284;5.758;2023-06-26T02:39:47;20.90;99.90
43858;DHT22;29507;51.284;5.758;2023-06-26T02:42:12;20.90;99.90
43858;DHT22;29507;51.284;5.758;2023-06-26T02:44:38;20.90;99.90
43858;DHT22;29507;51.284;5.758;2023-06-26T02:47:04;20.90;99.90
43858;DHT22;29507;51.284;5.758;2023-06-26T02:49:29;20.90;99.90
43858;DHT22;29507;51.284;5.758;2023-06-26T02:51:55;20.90;99.90
43858;DHT22;29507;51.284;5.758;2023-06-26T02:54:21;20.80;99.90
43858;DHT22;29507;51.284;5.758;2023-06-26T02:56:46;20.80;99.90
43858;DHT22;29507;51.284;5.758;2023-06-26T02:59:12;20.80;99.90
43858;DHT22;29507;51.284;5.758;2023-06-26T03:01:37;20.70;99.90
43858;DHT22;29507;51.284;5.758;2023-06-26T03:04:04;20.70;99.90
43858;DHT22;29507;51.284;5.758;2023-06-26T03:06:30;20.70;99.90
43858;DHT22;29507;51.284;5.758;2023-06-26T03:08:55;20.70;99.90
43858;DHT22;29507;51.284;5.758;2023-06-26T03:11:21;20.60;99.90
43858;DHT22;29507;51.284;5.758;2023-06-26T03:13:47;20.60;99.90
43858;DHT22;29507;51.284;5.758;2023-06-26T03:16:12;20.60;99.90
43858;DHT22;29507;51.284;5.758;2023-06-26T03:18:38;20.60;99.90
43858;DHT22;29507;51.284;5.758;2023-06-26T03:21:04;20.60;99.90
43858;DHT22;29507;51.284;5.758;2023-06-26T03:23:30;20.60;99.90
43858;DHT22;29507;51.284;5.758;2023-06-26T03:25:56;20.60;99.90
43858;DHT22;29507;51.284;5.758;2023-06-26T03:28:22;20.60;99.90
43858;DHT22;29507;51.284;5.758;2023-06-26T03:30:47;20.60;99.90
43858;DHT22;29507;51.284;5.758;2023-06-26T03:33:13;20.50;99.90
43858;DHT22;29507;51.284;5.758;2023-06-26T03:35:38;20.40;99.90
43858;DHT22;29507;51.284;5.758;2023-06-26T03:38:04;20.40;99.90
43858;DHT22;29507;51.284;5.758;2023-06-26T03:40:30;20.30;99.90
43858;DHT22;29507;51.284;5.758;2023-06-26T03:42:56;20.20;99.90
43858;DHT22;29507;51.284;5.758;2023-06-26T03:45:22;20.20;99.90
43858;DHT22;29507;51.284;5.758;2023-06-26T03:47:47;20.20;99.90
43858;DHT22;29507;51.284;5.758;2023-06-26T03:50:17;20.20;99.90
43858;DHT22;29507;51.284;5.758;2023-06-26T03:52:43;20.20;99.90
43858;DHT22;29507;51.284;5.758;2023-06-26T03:55:08;20.20;99.90
43858;DHT22;29507;51.284;5.758;2023-06-26T03:57:34;20.10;99.90
43858;DHT22;29507;51.284;5.758;2023-06-26T04:00:00;20.10;99.90
43858;DHT22;29507;51.284;5.758;2023-06-26T04:02:26;20.10;99.90
43858;DHT22;29507;51.284;5.758;2023-06-26T04:04:51;20.10;99.90
43858;DHT22;29507;51.284;5.758;2023-06-26T04:07:19;20.10;99.90
43858;DHT22;29507;51.284;5.758;2023-06-26T04:09:44;20.00;99.90
43858;DHT22;29507;51.284;5.758;2023-06-26T04:12:10;20.00;99.90
43858;DHT22;29507;51.284;5.758;2023-06-26T04:14:36;20.00;99.90
43858;DHT22;29507;51.284;5.758;2023-06-26T04:17:02;20.00;99.90
43858;DHT22;29507;51.284;5.758;2023-06-26T04:19:29;20.00;99.90
43858;DHT22;29507;51.284;5.758;2023-06-26T04:21:55;20.00;99.90
43858;DHT22;29507;51.284;5.758;2023-06-26T04:24:20;20.00;99.90
43858;DHT22;29507;51.284;5.758;2023-06-26T04:26:46;20.00;99.90
43858;DHT22;29507;51.284;5.758;2023-06-26T04:29:12;20.00;99.90
43858;DHT22;29507;51.284;5.758;2023-06-26T04:31:38;20.00;99.90
43858;DHT22;29507;51.284;5.758;2023-06-26T04:34:04;20.00;99.90
43858;DHT22;29507;51.284;5.758;2023-06-26T04:36:30;20.00;99.90
43858;DHT22;29507;51.284;5.758;2023-06-26T04:38:57;20.00;99.90
43858;DHT22;29507;51.284;5.758;2023-06-26T04:41:24;20.00;99.90
43858;DHT22;29507;51.284;5.758;2023-06-26T04:43:50;20.00;99.90
43858;DHT22;29507;51.284;5.758;2023-06-26T04:46:15;20.00;99.90
43858;DHT22;29507;51.284;5.758;2023-06-26T04:48:41;20.00;99.90
43858;DHT22;29507;51.284;5.758;2023-06-26T04:51:07;20.00;99.90
43858;DHT22;29507;51.284;5.758;2023-06-26T04:53:32;20.00;99.90
43858;DHT22;29507;51.284;5.758;2023-06-26T04:55:58;20.00;99.90
43858;DHT22;29507;51.284;5.758;2023-06-26T04:58:23;20.00;99.90
43858;DHT22;29507;51.284;5.758;2023-06-26T05:00:49;20.00;99.90
43858;DHT22;29507;51.284;5.758;2023-06-26T05:03:16;19.90;99.90
43858;DHT22;29507;51.284;5.758;2023-06-26T05:05:43;19.90;99.90
43858;DHT22;29507;51.284;5.758;2023-06-26T05:08:16;19.90;99.90
43858;DHT22;29507;51.284;5.758;2023-06-26T05:10:42;19.90;99.90
43858;DHT22;29507;51.284;5.758;2023-06-26T05:13:08;20.00;99.90
43858;DHT22;29507;51.284;5.758;2023-06-26T05:15:34;20.00;99.90
43858;DHT22;29507;51.284;5.758;2023-06-26T05:17:59;20.10;99.90
43858;DHT22;29507;51.284;5.758;2023-06-26T05:20:25;20.10;99.90
43858;DHT22;29507;51.284;5.758;2023-06-26T05:22:50;20.10;99.90
43858;DHT22;29507;51.284;5.758;2023-06-26T05:25:18;20.20;99.90
43858;DHT22;29507;51.284;5.758;2023-06-26T05:27:47;20.20;99.90
43858;DHT22;29507;51.284;5.758;2023-06-26T05:30:13;20.30;99.90
43858;DHT22;29507;51.284;5.758;2023-06-26T05:32:40;20.40;99.90
43858;DHT22;29507;51.284;5.758;2023-06-26T05:35:06;20.40;99.90
43858;DHT22;29507;51.284;5.758;2023-06-26T05:37:33;20.60;99.90
43858;DHT22;29507;51.284;5.758;2023-06-26T05:40:00;20.90;99.90
43858;DHT22;29507;51.284;5.758;2023-06-26T05:42:29;21.10;99.90
43858;DHT22;29507;51.284;5.758;2023-06-26T05:44:55;21.40;99.90
43858;DHT22;29507;51.284;5.758;2023-06-26T05:47:21;21.70;99.90
43858;DHT22;29507;51.284;5.758;2023-06-26T05:49:47;21.90;99.90
43858;DHT22;29507;51.284;5.758;2023-06-26T05:52:13;21.80;99.90
43858;DHT22;29507;51.284;5.758;2023-06-26T05:54:39;21.60;99.90
43858;DHT22;29507;51.284;5.758;2023-06-26T05:57:04;21.90;99.90
43858;DHT22;29507;51.284;5.758;2023-06-26T05:59:35;22.00;99.90
43858;DHT22;29507;51.284;5.758;2023-06-26T06:02:02;21.90;99.90
43858;DHT22;29507;51.284;5.758;2023-06-26T06:04:28;21.80;99.90
43858;DHT22;29507;51.284;5.758;2023-06-26T06:06:53;21.70;99.90
43858;DHT22;29507;51.284;5.758;2023-06-26T06:09:19;21.70;99.90
43858;DHT22;29507;51.284;5.758;2023-06-26T06:11:44;21.80;99.90
43858;DHT22;29507;51.284;5.758;2023-06-26T06:14:10;21.60;99.90
43858;DHT22;29507;51.284;5.758;2023-06-26T06:16:36;21.80;99.90
43858;DHT22;29507;51.284;5.758;2023-06-26T06:19:01;21.90;99.90
43858;DHT22;29507;51.284;5.758;2023-06-26T06:21:28;22.10;99.90
43858;DHT22;29507;51.284;5.758;2023-06-26T06:23:54;22.30;99.90
43858;DHT22;29507;51.284;5.758;2023-06-26T06:26:19;22.50;99.90
43858;DHT22;29507;51.284;5.758;2023-06-26T06:28:45;22.50;99.90
43858;DHT22;29507;51.284;5.758;2023-06-26T06:31:11;22.60;99.90
43858;DHT22;29507;51.284;5.758;2023-06-26T06:33:36;22.60;99.90
43858;DHT22;29507;51.284;5.758;2023-06-26T06:36:02;22.80;99.90
43858;DHT22;29507;51.284;5.758;2023-06-26T06:38:27;23.00;99.90
43858;DHT22;29507;51.284;5.758;2023-06-26T06:40:53;23.10;99.90
43858;DHT22;29507;51.284;5.758;2023-06-26T06:43:19;23.30;99.90
43858;DHT22;29507;51.284;5.758;2023-06-26T06:45:45;23.20;99.90
43858;DHT22;29507;51.284;5.758;2023-06-26T06:48:11;23.50;99.90
43858;DHT22;29507;51.284;5.758;2023-06-26T06:50:36;23.50;99.90
43858;DHT22;29507;51.284;5.758;2023-06-26T06:53:02;23.50;99.90
43858;DHT22;29507;51.284;5.758;2023-06-26T06:55:27;23.50;99.90
43858;DHT22;29507;51.284;5.758;2023-06-26T06:57:53;23.80;99.90
43858;DHT22;29507;51.284;5.758;2023-06-26T07:00:19;24.10;99.90
43858;DHT22;29507;51.284;5.758;2023-06-26T07:02:45;24.30;99.90
43858;DHT22;29507;51.284;5.758;2023-06-26T07:05:12;24.50;99.90
43858;DHT22;29507;51.284;5.758;2023-06-26T07:07:38;24.40;99.30
43858;DHT22;29507;51.284;5.758;2023-06-26T07:10:09;24.40;99.60
43858;DHT22;29507;51.284;5.758;2023-06-26T07:12:36;24.60;99.60
43858;DHT22;29507;51.284;5.758;2023-06-26T07:15:03;24.80;98.20
43858;DHT22;29507;51.284;5.758;2023-06-26T07:17:30;24.80;97.40
43858;DHT22;29507;51.284;5.758;2023-06-26T07:19:56;24.90;97.10
43858;DHT22;29507;51.284;5.758;2023-06-26T07:22:21;24.70;97.10
43858;DHT22;29507;51.284;5.758;2023-06-26T07:24:48;24.30;98.20
43858;DHT22;29507;51.284;5.758;2023-06-26T07:27:16;24.20;97.70
43858;DHT22;29507;51.284;5.758;2023-06-26T07:29:44;23.80;98.40
43858;DHT22;29507;51.284;5.758;2023-06-26T07:32:10;23.50;99.30
43858;DHT22;29507;51.284;5.758;2023-06-26T07:34:36;23.20;99.80
43858;DHT22;29507;51.284;5.758;2023-06-26T07:37:02;23.10;99.90
43858;DHT22;29507;51.284;5.758;2023-06-26T07:39:27;23.40;99.90
43858;DHT22;29507;51.284;5.758;2023-06-26T07:41:53;23.60;99.80
43858;DHT22;29507;51.284;5.758;2023-06-26T07:44:19;24.10;99.20
43858;DHT22;29507;51.284;5.758;2023-06-26T07:46:44;24.80;97.80
43858;DHT22;29507;51.284;5.758;2023-06-26T07:49:11;25.20;96.30
43858;DHT22;29507;51.284;5.758;2023-06-26T07:51:37;25.10;95.40
43858;DHT22;29507;51.284;5.758;2023-06-26T07:54:03;24.70;95.80
43858;DHT22;29507;51.284;5.758;2023-06-26T07:56:28;24.20;96.90
43858;DHT22;29507;51.284;5.758;2023-06-26T07:58:54;23.90;97.70
43858;DHT22;29507;51.284;5.758;2023-06-26T08:01:20;23.60;98.50
43858;DHT22;29507;51.284;5.758;2023-06-26T08:03:45;23.40;99.60
43858;DHT22;29507;51.284;5.758;2023-06-26T08:06:11;23.40;99.20
43858;DHT22;29507;51.284;5.758;2023-06-26T08:08:37;23.30;99.20
43858;DHT22;29507;51.284;5.758;2023-06-26T08:11:02;23.70;99.20
43858;DHT22;29507;51.284;5.758;2023-06-26T08:13:28;24.60;97.60
43858;DHT22;29507;51.284;5.758;2023-06-26T08:15:54;25.60;95.10
43858;DHT22;29507;51.284;5.758;2023-06-26T08:18:20;25.70;93.50
43858;DHT22;29507;51.284;5.758;2023-06-26T08:20:45;25.50;93.00
43858;DHT22;29507;51.284;5.758;2023-06-26T08:23:11;25.10;93.40
43858;DHT22;29507;51.284;5.758;2023-06-26T08:25:37;25.00;93.60
43858;DHT22;29507;51.284;5.758;2023-06-26T08:28:02;24.70;93.60
43858;DHT22;29507;51.284;5.758;2023-06-26T08:30:28;24.30;94.10
43858;DHT22;29507;51.284;5.758;2023-06-26T08:32:57;23.90;94.90
43858;DHT22;29507;51.284;5.758;2023-06-26T08:35:23;24.10;95.10
43858;DHT22;29507;51.284;5.758;2023-06-26T08:37:48;24.30;95.70
43858;DHT22;29507;51.284;5.758;2023-06-26T08:40:17;24.50;94.20
43858;DHT22;29507;51.284;5.758;2023-06-26T08:42:44;24.10;93.90
43858;DHT22;29507;51.284;5.758;2023-06-26T08:45:09;24.10;94.30
43858;DHT22;29507;51.284;5.758;2023-06-26T08:47:35;24.60;94.00
43858;DHT22;29507;51.284;5.758;2023-06-26T08:50:12;25.20;92.10
43858;DHT22;29507;51.284;5.758;2023-06-26T08:53:08;25.20;92.20
43858;DHT22;29507;51.284;5.758;2023-06-26T08:55:38;25.10;91.80
43858;DHT22;29507;51.284;5.758;2023-06-26T08:58:06;24.50;92.30
43858;DHT22;29507;51.284;5.758;2023-06-26T09:00:32;24.10;93.30
43858;DHT22;29507;51.284;5.758;2023-06-26T09:02:58;24.70;93.60
43858;DHT22;29507;51.284;5.758;2023-06-26T09:05:26;24.90;91.30
43858;DHT22;29507;51.284;5.758;2023-06-26T09:07:52;24.70;91.70
43858;DHT22;29507;51.284;5.758;2023-06-26T09:10:21;24.10;91.30
43858;DHT22;29507;51.284;5.758;2023-06-26T09:12:47;23.70;92.20
43858;DHT22;29507;51.284;5.758;2023-06-26T09:15:19;23.80;90.80
43858;DHT22;29507;51.284;5.758;2023-06-26T09:17:44;23.90;91.10
43858;DHT22;29507;51.284;5.758;2023-06-26T09:20:10;24.50;88.00
43858;DHT22;29507;51.284;5.758;2023-06-26T09:22:37;24.70;85.70
43858;DHT22;29507;51.284;5.758;2023-06-26T09:25:05;25.10;85.20
43858;DHT22;29507;51.284;5.758;2023-06-26T09:27:31;25.20;83.00
43858;DHT22;29507;51.284;5.758;2023-06-26T09:29:57;25.30;82.60
43858;DHT22;29507;51.284;5.758;2023-06-26T09:32:27;25.40;83.30
43858;DHT22;29507;51.284;5.758;2023-06-26T09:34:55;26.10;81.90
43858;DHT22;29507;51.284;5.758;2023-06-26T09:37:21;26.20;82.00
43858;DHT22;29507;51.284;5.758;2023-06-26T09:39:48;26.00;80.50
43858;DHT22;29507;51.284;5.758;2023-06-26T09:42:14;26.10;79.40
43858;DHT22;29507;51.284;5.758;2023-06-26T09:44:44;26.30;78.20
43858;DHT22;29507;51.284;5.758;2023-06-26T09:47:10;26.30;77.20
43858;DHT22;29507;51.284;5.758;2023-06-26T09:49:36;25.70;78.20
43858;DHT22;29507;51.284;5.758;2023-06-26T09:52:02;25.30;79.50
43858;DHT22;29507;51.284;5.758;2023-06-26T09:54:28;24.90;81.90
43858;DHT22;29507;51.284;5.758;2023-06-26T09:57:06;25.00;82.40
43858;DHT22;29507;51.284;5.758;2023-06-26T09:59:32;25.60;82.70
43858;DHT22;29507;51.284;5.758;2023-06-26T10:01:59;25.90;79.40
43858;DHT22;29507;51.284;5.758;2023-06-26T10:04:25;25.30;79.90
43858;DHT22;29507;51.284;5.758;2023-06-26T10:06:54;24.70;77.90
43858;DHT22;29507;51.284;5.758;2023-06-26T10:09:22;24.10;80.40
43858;DHT22;29507;51.284;5.758;2023-06-26T10:12:23;23.90;82.50
43858;DHT22;29507;51.284;5.758;2023-06-26T10:14:41;24.70;81.90
43858;DHT22;29507;51.284;5.758;2023-06-26T10:17:10;25.70;78.20
43858;DHT22;29507;51.284;5.758;2023-06-26T10:19:38;26.10;76.40
43858;DHT22;29507;51.284;5.758;2023-06-26T10:22:05;26.30;75.20
43858;DHT22;29507;51.284;5.758;2023-06-26T10:24:34;26.20;73.30
43858;DHT22;29507;51.284;5.758;2023-06-26T10:27:06;26.20;72.50
43858;DHT22;29507;51.284;5.758;2023-06-26T10:29:35;26.20;72.60
43858;DHT22;29507;51.284;5.758;2023-06-26T10:32:03;26.50;70.90
43858;DHT22;29507;51.284;5.758;2023-06-26T10:34:30;27.10;71.00
43858;DHT22;29507;51.284;5.758;2023-06-26T10:37:02;26.70;70.60
43858;DHT22;29507;51.284;5.758;2023-06-26T10:42:11;25.60;73.10
43858;DHT22;29507;51.284;5.758;2023-06-26T10:44:41;25.30;74.00
43858;DHT22;29507;51.284;5.758;2023-06-26T10:47:07;25.70;73.10
43858;DHT22;29507;51.284;5.758;2023-06-26T10:49:35;26.50;71.90
43858;DHT22;29507;51.284;5.758;2023-06-26T10:52:02;26.90;71.00
43858;DHT22;29507;51.284;5.758;2023-06-26T10:54:54;26.90;68.40
43858;DHT22;29507;51.284;5.758;2023-06-26T10:57:23;26.20;66.30
43858;DHT22;29507;51.284;5.758;2023-06-26T11:00:11;25.50;68.30
43858;DHT22;29507;51.284;5.758;2023-06-26T11:02:50;25.60;69.30
43858;DHT22;29507;51.284;5.758;2023-06-26T11:05:32;26.70;69.40
43858;DHT22;29507;51.284;5.758;2023-06-26T11:08:06;26.50;66.70
43858;DHT22;29507;51.284;5.758;2023-06-26T11:10:52;25.80;67.80
43858;DHT22;29507;51.284;5.758;2023-06-26T11:13:19;25.60;63.20
43858;DHT22;29507;51.284;5.758;2023-06-26T11:15:45;26.30;63.10
43858;DHT22;29507;51.284;5.758;2023-06-26T11:18:12;27.00;64.30
43858;DHT22;29507;51.284;5.758;2023-06-26T11:20:38;27.30;64.20
43858;DHT22;29507;51.284;5.758;2023-06-26T11:23:08;27.70;63.10
43858;DHT22;29507;51.284;5.758;2023-06-26T11:25:37;27.70;61.80
43858;DHT22;29507;51.284;5.758;2023-06-26T11:28:09;27.60;61.40
43858;DHT22;29507;51.284;5.758;2023-06-26T11:30:34;27.70;61.40
43858;DHT22;29507;51.284;5.758;2023-06-26T11:33:08;27.40;64.60
43858;DHT22;29507;51.284;5.758;2023-06-26T11:35:34;27.40;66.10
43858;DHT22;29507;51.284;5.758;2023-06-26T11:38:01;28.10;64.70
43858;DHT22;29507;51.284;5.758;2023-06-26T11:40:33;28.50;63.30
43858;DHT22;29507;51.284;5.758;2023-06-26T11:43:00;28.20;61.10
43858;DHT22;29507;51.284;5.758;2023-06-26T11:45:33;28.20;61.90
43858;DHT22;29507;51.284;5.758;2023-06-26T11:47:59;28.70;62.70
43858;DHT22;29507;51.284;5.758;2023-06-26T11:50:25;28.90;61.50
43858;DHT22;29507;51.284;5.758;2023-06-26T11:52:55;28.70;56.10
43858;DHT22;29507;51.284;5.758;2023-06-26T11:55:22;28.20;56.00
43858;DHT22;29507;51.284;5.758;2023-06-26T11:57:57;28.10;58.10
43858;DHT22;29507;51.284;5.758;2023-06-26T12:00:23;28.20;57.30
43858;DHT22;29507;51.284;5.758;2023-06-26T12:02:49;28.20;56.00
43858;DHT22;29507;51.284;5.758;2023-06-26T12:05:18;28.20;56.90
43858;DHT22;29507;51.284;5.758;2023-06-26T12:07:46;28.00;59.10
43858;DHT22;29507;51.284;5.758;2023-06-26T12:10:13;28.10;59.80
43858;DHT22;29507;51.284;5.758;2023-06-26T12:12:40;27.80;60.10
43858;DHT22;29507;51.284;5.758;2023-06-26T12:15:12;28.00;60.20
43858;DHT22;29507;51.284;5.758;2023-06-26T12:17:38;27.80;59.70
43858;DHT22;29507;51.284;5.758;2023-06-26T12:20:23;27.60;59.70
43858;DHT22;29507;51.284;5.758;2023-06-26T12:22:51;27.70;61.90
43858;DHT22;29507;51.284;5.758;2023-06-26T12:25:22;27.80;56.60
43858;DHT22;29507;51.284;5.758;2023-06-26T12:27:48;28.00;57.00
43858;DHT22;29507;51.284;5.758;2023-06-26T12:30:15;28.10;57.60
43858;DHT22;29507;51.284;5.758;2023-06-26T12:32:44;28.00;57.30
43858;DHT22;29507;51.284;5.758;2023-06-26T12:35:11;27.90;57.30
43858;DHT22;29507;51.284;5.758;2023-06-26T12:37:37;27.60;58.60
43858;DHT22;29507;51.284;5.758;2023-06-26T12:40:19;28.10;58.80
43858;DHT22;29507;51.284;5.758;2023-06-26T12:42:47;27.90;59.10
43858;DHT22;29507;51.284;5.758;2023-06-26T12:45:13;27.60;59.40
43858;DHT22;29507;51.284;5.758;2023-06-26T12:47:39;27.70;62.30
43858;DHT22;29507;51.284;5.758;2023-06-26T12:50:07;27.80;61.70
43858;DHT22;29507;51.284;5.758;2023-06-26T12:52:33;28.00;62.60
43858;DHT22;29507;51.284;5.758;2023-06-26T12:54:58;28.60;61.30
43858;DHT22;29507;51.284;5.758;2023-06-26T12:57:24;27.90;61.90
43858;DHT22;29507;51.284;5.758;2023-06-26T12:59:50;27.00;63.30
43858;DHT22;29507;51.284;5.758;2023-06-26T13:02:16;27.00;63.00
43858;DHT22;29507;51.284;5.758;2023-06-26T13:04:42;27.20;63.20
43858;DHT22;29507;51.284;5.758;2023-06-26T13:07:10;28.10;63.40
43858;DHT22;29507;51.284;5.758;2023-06-26T13:09:36;27.90;63.30
43858;DHT22;29507;51.284;5.758;2023-06-26T13:12:03;26.80;61.50
43858;DHT22;29507;51.284;5.758;2023-06-26T13:14:29;26.00;63.30
43858;DHT22;29507;51.284;5.758;2023-06-26T13:16:55;25.70;64.50
43858;DHT22;29507;51.284;5.758;2023-06-26T13:19:21;26.30;64.10
43858;DHT22;29507;51.284;5.758;2023-06-26T13:21:47;27.00;62.80
43858;DHT22;29507;51.284;5.758;2023-06-26T13:24:12;27.80;61.70
43858;DHT22;29507;51.284;5.758;2023-06-26T13:26:38;27.80;60.10
43858;DHT22;29507;51.284;5.758;2023-06-26T13:29:05;27.50;60.30
43858;DHT22;29507;51.284;5.758;2023-06-26T13:31:30;27.10;60.80
43858;DHT22;29507;51.284;5.758;2023-06-26T13:33:58;26.40;62.90
43858;DHT22;29507;51.284;5.758;2023-06-26T13:36:24;26.30;64.50
43858;DHT22;29507;51.284;5.758;2023-06-26T13:38:50;26.00;62.90
43858;DHT22;29507;51.284;5.758;2023-06-26T13:41:22;25.70;63.90
43858;DHT22;29507;51.284;5.758;2023-06-26T13:43:48;26.60;64.30
43858;DHT22;29507;51.284;5.758;2023-06-26T13:46:14;27.20;63.20
43858;DHT22;29507;51.284;5.758;2023-06-26T13:48:40;27.50;61.60
43858;DHT22;29507;51.284;5.758;2023-06-26T13:51:06;27.70;60.00
43858;DHT22;29507;51.284;5.758;2023-06-26T13:53:31;27.70;60.60
43858;DHT22;29507;51.284;5.758;2023-06-26T13:55:57;27.60;59.60
43858;DHT22;29507;51.284;5.758;2023-06-26T13:58:22;27.40;59.90
43858;DHT22;29507;51.284;5.758;2023-06-26T14:00:52;27.60;61.50
43858;DHT22;29507;51.284;5.758;2023-06-26T14:03:18;27.50;60.00
43858;DHT22;29507;51.284;5.758;2023-06-26T14:05:43;28.00;61.90
43858;DHT22;29507;51.284;5.758;2023-06-26T14:08:09;27.70;61.10
43858;DHT22;29507;51.284;5.758;2023-06-26T14:10:36;27.60;59.60
43858;DHT22;29507;51.284;5.758;2023-06-26T14:13:02;27.30;61.30
43858;DHT22;29507;51.284;5.758;2023-06-26T14:15:29;27.00;61.20
43858;DHT22;29507;51.284;5.758;2023-06-26T14:17:55;27.30;59.90
43858;DHT22;29507;51.284;5.758;2023-06-26T14:20:22;27.60;59.90
43858;DHT22;29507;51.284;5.758;2023-06-26T14:22:48;27.50;59.70
43858;DHT22;29507;51.284;5.758;2023-06-26T14:25:15;27.30;58.90
43858;DHT22;29507;51.284;5.758;2023-06-26T14:27:41;27.00;60.20
43858;DHT22;29507;51.284;5.758;2023-06-26T14:30:08;27.00;60.20
43858;DHT22;29507;51.284;5.758;2023-06-26T14:32:34;27.00;61.00
43858;DHT22;29507;51.284;5.758;2023-06-26T14:35:01;26.70;61.10
43858;DHT22;29507;51.284;5.758;2023-06-26T14:37:29;26.30;59.90
43858;DHT22;29507;51.284;5.758;2023-06-26T14:39:55;26.40;59.40
43858;DHT22;29507;51.284;5.758;2023-06-26T14:42:21;26.10;59.30
43858;DHT22;29507;51.284;5.758;2023-06-26T14:44:46;26.10;60.50
43858;DHT22;29507;51.284;5.758;2023-06-26T14:47:15;26.10;60.50
43858;DHT22;29507;51.284;5.758;2023-06-26T14:49:40;26.20;61.10
43858;DHT22;29507;51.284;5.758;2023-06-26T14:52:06;26.30;60.40
43858;DHT22;29507;51.284;5.758;2023-06-26T14:54:32;26.30;60.30
43858;DHT22;29507;51.284;5.758;2023-06-26T14:56:58;25.90;60.20
43858;DHT22;29507;51.284;5.758;2023-06-26T14:59:24;25.60;61.10
43858;DHT22;29507;51.284;5.758;2023-06-26T15:01:50;25.60;60.40
43858;DHT22;29507;51.284;5.758;2023-06-26T15:04:15;25.30;60.90
43858;DHT22;29507;51.284;5.758;2023-06-26T15:06:41;25.00;62.00
43858;DHT22;29507;51.284;5.758;2023-06-26T15:09:06;25.10;63.50
43858;DHT22;29507;51.284;5.758;2023-06-26T15:11:34;25.30;64.40
43858;DHT22;29507;51.284;5.758;2023-06-26T15:14:01;25.50;63.90
43858;DHT22;29507;51.284;5.758;2023-06-26T15:16:26;25.70;62.80
43858;DHT22;29507;51.284;5.758;2023-06-26T15:18:52;25.70;62.00
43858;DHT22;29507;51.284;5.758;2023-06-26T15:21:18;25.30;62.20
43858;DHT22;29507;51.284;5.758;2023-06-26T15:23:45;25.10;62.30
43858;DHT22;29507;51.284;5.758;2023-06-26T15:26:11;24.90;62.70
43858;DHT22;29507;51.284;5.758;2023-06-26T15:28:37;24.70;63.20
43858;DHT22;29507;51.284;5.758;2023-06-26T15:31:02;24.80;64.10
43858;DHT22;29507;51.284;5.758;2023-06-26T15:33:28;24.70;64.60
43858;DHT22;29507;51.284;5.758;2023-06-26T15:35:54;24.70;64.00
43858;DHT22;29507;51.284;5.758;2023-06-26T15:38:19;24.70;64.60
43858;DHT22;29507;51.284;5.758;2023-06-26T15:40:45;24.80;64.30